sensor_id;sensor_type;location;lat;lon;timestamp;temperature;humidity
20479;DHT22;10398;52.490;13.434;2024-02-23T00:02:20;11.20;99.90
20479;DHT22;10398;52.490;13.434;2024-02-23T00:04:46;11.20;99.90
20479;DHT22;10398;52.490;13.434;2024-02-23T00:07:12;11.20;99.90
20479;DHT22;10398;52.490;13.434;2024-02-23T00:09:38;11.20;99.90
20479;DHT22;10398;52.490;13.434;2024-02-23T00:12:03;11.20;99.90
20479;DHT22;10398;52.490;13.434;2024-02-23T00:14:30;11.20;99.90
20479;DHT22;10398;52.490;13.434;2024-02-23T00:17:02;11.20;99.90
20479;DHT22;10398;52.490;13.434;2024-02-23T00:19:27;11.30;99.90
20479;DHT22;10398;52.490;13.434;2024-02-23T00:21:53;11.20;99.90
20479;DHT22;10398;52.490;13.434;2024-02-23T00:24:19;11.20;99.90
20479;DHT22;10398;52.490;13.434;2024-02-23T00:26:48;11.30;99.90
20479;DHT22;10398;52.490;13.434;2024-02-23T00:29:16;11.30;99.90
20479;DHT22;10398;52.490;13.434;2024-02-23T00:31:42;11.30;99.90
20479;DHT22;10398;52.490;13.434;2024-02-23T00:34:08;11.40;99.90
20479;DHT22;10398;52.490;13.434;2024-02-23T00:36:38;11.40;99.90
20479;DHT22;10398;52.490;13.434;2024-02-23T00:39:04;11.40;99.90
20479;DHT22;10398;52.490;13.434;2024-02-23T00:41:30;11.40;99.90
20479;DHT22;10398;52.490;13.434;2024-02-23T00:43:55;11.40;99.90
20479;DHT22;10398;52.490;13.434;2024-02-23T00:46:21;11.40;99.90
20479;DHT22;10398;52.490;13.434;2024-02-23T00:48:46;11.30;99.90
20479;DHT22;10398;52.490;13.434;2024-02-23T00:51:12;11.30;99.90
20479;DHT22;10398;52.490;13.434;2024-02-23T00:53:38;11.30;99.90
20479;DHT22;10398;52.490;13.434;2024-02-23T00:56:04;11.30;99.90
20479;DHT22;10398;52.490;13.434;2024-02-23T00:58:29;11.30;99.90
20479;DHT22;10398;52.490;13.434;2024-02-23T01:00:55;11.30;99.90
20479;DHT22;10398;52.490;13.434;2024-02-23T01:03:21;11.30;99.90
20479;DHT22;10398;52.490;13.434;2024-02-23T01:05:47;11.30;99.90
20479;DHT22;10398;52.490;13.434;2024-02-23T01:08:13;11.40;99.90
20479;DHT22;10398;52.490;13.434;2024-02-23T01:10:38;11.40;99.90
20479;DHT22;10398;52.490;13.434;2024-02-23T01:13:04;11.50;99.90
20479;DHT22;10398;52.490;13.434;2024-02-23T01:15:30;11.60;99.90
20479;DHT22;10398;52.490;13.434;2024-02-23T01:17:56;11.60;99.90
20479;DHT22;10398;52.490;13.434;2024-02-23T01:20:22;11.70;99.90
20479;DHT22;10398;52.490;13.434;2024-02-23T01:22:47;11.60;99.90
20479;DHT22;10398;52.490;13.434;2024-02-23T01:25:16;11.70;99.90
20479;DHT22;10398;52.490;13.434;2024-02-23T01:27:42;11.70;99.90
20479;DHT22;10398;52.490;13.434;2024-02-23T01:30:10;11.80;99.90
20479;DHT22;10398;52.490;13.434;2024-02-23T01:32:39;11.80;99.90
20479;DHT22;10398;52.490;13.434;2024-02-23T01:35:05;11.90;99.90
20479;DHT22;10398;52.490;13.434;2024-02-23T01:37:34;11.90;99.90
20479;DHT22;10398;52.490;13.434;2024-02-23T01:40:00;11.90;99.90
20479;DHT22;10398;52.490;13.434;2024-02-23T01:42:26;12.00;99.90
20479;DHT22;10398;52.490;13.434;2024-02-23T01:44:52;12.00;99.90
20479;DHT22;10398;52.490;13.434;2024-02-23T01:47:21;12.00;99.90
20479;DHT22;10398;52.490;13.434;2024-02-23T01:49:48;12.10;99.90
20479;DHT22;10398;52.490;13.434;2024-02-23T01:52:14;12.10;99.90
20479;DHT22;10398;52.490;13.434;2024-02-23T01:54:40;12.10;99.90
20479;DHT22;10398;52.490;13.434;2024-02-23T01:57:07;12.10;99.90
20479;DHT22;10398;52.490;13.434;2024-02-23T01:59:35;12.20;99.90
20479;DHT22;10398;52.490;13.434;2024-02-23T02:02:03;12.20;99.90
20479;DHT22;10398;52.490;13.434;2024-02-23T02:04:29;12.20;99.90
20479;DHT22;10398;52.490;13.434;2024-02-23T02:06:55;12.10;99.90
20479;DHT22;10398;52.490;13.434;2024-02-23T02:09:21;12.10;99.90
20479;DHT22;10398;52.490;13.434;2024-02-23T02:11:47;12.20;99.90
20479;DHT22;10398;52.490;13.434;2024-02-23T02:14:14;12.20;99.90
20479;DHT22;10398;52.490;13.434;2024-02-23T02:16:40;12.10;99.90
20479;DHT22;10398;52.490;13.434;2024-02-23T02:19:05;12.10;99.90
20479;DHT22;10398;52.490;13.434;2024-02-23T02:21:32;12.10;99.90
20479;DHT22;10398;52.490;13.434;2024-02-23T02:23:58;12.10;99.90
20479;DHT22;10398;52.490;13.434;2024-02-23T02:26:24;12.10;99.90
20479;DHT22;10398;52.490;13.434;2024-02-23T02:28:52;12.00;99.90
20479;DHT22;10398;52.490;13.434;2024-02-23T02:31:18;12.00;99.90
20479;DHT22;10398;52.490;13.434;2024-02-23T02:33:44;11.90;99.90
20479;DHT22;10398;52.490;13.434;2024-02-23T02:36:10;11.80;99.90
20479;DHT22;10398;52.490;13.434;2024-02-23T02:38:37;11.70;99.90
20479;DHT22;10398;52.490;13.434;2024-02-23T02:41:03;11.60;99.90
20479;DHT22;10398;52.490;13.434;2024-02-23T02:43:29;11.60;99.90
20479;DHT22;10398;52.490;13.434;2024-02-23T02:45:54;11.60;99.90
20479;DHT22;10398;52.490;13.434;2024-02-23T02:48:20;11.50;99.90
20479;DHT22;10398;52.490;13.434;2024-02-23T02:50:46;11.50;99.90
20479;DHT22;10398;52.490;13.434;2024-02-23T02:53:11;11.50;99.90
20479;DHT22;10398;52.490;13.434;2024-02-23T02:55:41;11.40;99.90
20479;DHT22;10398;52.490;13.434;2024-02-23T02:58:07;11.40;99.90
20479;DHT22;10398;52.490;13.434;2024-02-23T03:00:33;11.40;99.90
20479;DHT22;10398;52.490;13.434;2024-02-23T03:02:59;11.40;99.90
20479;DHT22;10398;52.490;13.434;2024-02-23T03:05:24;11.30;99.90
20479;DHT22;10398;52.490;13.434;2024-02-23T03:07:50;11.30;99.90
20479;DHT22;10398;52.490;13.434;2024-02-23T03:10:15;11.30;99.90
20479;DHT22;10398;52.490;13.434;2024-02-23T03:12:41;11.30;99.90
20479;DHT22;10398;52.490;13.434;2024-02-23T03:15:07;11.20;99.90
20479;DHT22;10398;52.490;13.434;2024-02-23T03:17:35;11.20;99.90
20479;DHT22;10398;52.490;13.434;2024-02-23T03:20:01;11.20;99.90
20479;DHT22;10398;52.490;13.434;2024-02-23T03:22:26;11.10;99.90
20479;DHT22;10398;52.490;13.434;2024-02-23T03:24:52;11.10;99.90
20479;DHT22;10398;52.490;13.434;2024-02-23T03:27:18;11.00;99.90
20479;DHT22;10398;52.490;13.434;2024-02-23T03:29:44;11.00;99.90
20479;DHT22;10398;52.490;13.434;2024-02-23T03:32:10;11.10;99.90
20479;DHT22;10398;52.490;13.434;2024-02-23T03:34:36;11.10;99.90
20479;DHT22;10398;52.490;13.434;2024-02-23T03:37:02;11.10;99.90
20479;DHT22;10398;52.490;13.434;2024-02-23T03:39:28;11.00;99.90
20479;DHT22;10398;52.490;13.434;2024-02-23T03:41:54;10.90;99.90
20479;DHT22;10398;52.490;13.434;2024-02-23T03:44:20;10.90;99.90
20479;DHT22;10398;52.490;13.434;2024-02-23T03:46:45;11.00;99.90
20479;DHT22;10398;52.490;13.434;2024-02-23T03:49:11;10.90;99.90
20479;DHT22;10398;52.490;13.434;2024-02-23T03:51:37;10.90;99.90
20479;DHT22;10398;52.490;13.434;2024-02-23T03:54:05;10.90;99.90
20479;DHT22;10398;52.490;13.434;2024-02-23T03:56:41;10.90;99.90
20479;DHT22;10398;52.490;13.434;2024-02-23T03:59:07;10.90;99.90
20479;DHT22;10398;52.490;13.434;2024-02-23T04:01:37;10.90;99.90
20479;DHT22;10398;52.490;13.434;2024-02-23T04:04:03;10.90;99.90
20479;DHT22;10398;52.490;13.434;2024-02-23T04:06:29;10.90;99.90
20479;DHT22;10398;52.490;13.434;2024-02-23T04:08:55;10.90;99.90
20479;DHT22;10398;52.490;13.434;2024-02-23T04:11:20;10.90;99.90
20479;DHT22;10398;52.490;13.434;2024-02-23T04:13:46;10.90;99.90
20479;DHT22;10398;52.490;13.434;2024-02-23T04:16:11;11.00;99.90
20479;DHT22;10398;52.490;13.434;2024-02-23T04:18:37;10.90;99.90
20479;DHT22;10398;52.490;13.434;2024-02-23T04:21:03;10.90;99.90
20479;DHT22;10398;52.490;13.434;2024-02-23T04:23:29;10.80;99.90
20479;DHT22;10398;52.490;13.434;2024-02-23T04:25:54;10.80;99.90
20479;DHT22;10398;52.490;13.434;2024-02-23T04:28:20;10.80;99.90
20479;DHT22;10398;52.490;13.434;2024-02-23T04:30:46;10.70;99.90
20479;DHT22;10398;52.490;13.434;2024-02-23T04:33:11;10.70;99.90
20479;DHT22;10398;52.490;13.434;2024-02-23T04:35:37;10.70;99.90
20479;DHT22;10398;52.490;13.434;2024-02-23T04:38:03;10.70;99.90
20479;DHT22;10398;52.490;13.434;2024-02-23T04:40:29;10.70;99.90
20479;DHT22;10398;52.490;13.434;2024-02-23T04:42:54;10.60;99.90
20479;DHT22;10398;52.490;13.434;2024-02-23T04:45:20;10.70;99.90
20479;DHT22;10398;52.490;13.434;2024-02-23T04:47:45;10.70;99.90
20479;DHT22;10398;52.490;13.434;2024-02-23T04:50:13;10.60;99.90
20479;DHT22;10398;52.490;13.434;2024-02-23T04:52:39;10.60;99.90
20479;DHT22;10398;52.490;13.434;2024-02-23T04:55:05;10.60;99.90
20479;DHT22;10398;52.490;13.434;2024-02-23T04:57:31;10.50;99.90
20479;DHT22;10398;52.490;13.434;2024-02-23T04:59:57;10.60;99.90
20479;DHT22;10398;52.490;13.434;2024-02-23T05:02:23;10.50;99.90
20479;DHT22;10398;52.490;13.434;2024-02-23T05:04:48;10.50;99.90
20479;DHT22;10398;52.490;13.434;2024-02-23T05:07:14;10.50;99.90
20479;DHT22;10398;52.490;13.434;2024-02-23T05:09:40;10.50;99.90
20479;DHT22;10398;52.490;13.434;2024-02-23T05:12:07;10.50;99.90
20479;DHT22;10398;52.490;13.434;2024-02-23T05:14:33;10.50;99.90
20479;DHT22;10398;52.490;13.434;2024-02-23T05:16:58;10.40;99.90
20479;DHT22;10398;52.490;13.434;2024-02-23T05:19:24;10.40;99.90
20479;DHT22;10398;52.490;13.434;2024-02-23T05:21:50;10.40;99.90
20479;DHT22;10398;52.490;13.434;2024-02-23T05:24:15;10.30;99.90
20479;DHT22;10398;52.490;13.434;2024-02-23T05:26:41;10.30;99.90
20479;DHT22;10398;52.490;13.434;2024-02-23T05:29:08;10.30;99.90
20479;DHT22;10398;52.490;13.434;2024-02-23T05:31:47;10.30;99.90
20479;DHT22;10398;52.490;13.434;2024-02-23T05:34:13;10.30;99.90
20479;DHT22;10398;52.490;13.434;2024-02-23T05:36:39;10.30;99.90
20479;DHT22;10398;52.490;13.434;2024-02-23T05:39:05;10.10;99.90
20479;DHT22;10398;52.490;13.434;2024-02-23T05:41:33;10.10;99.90
20479;DHT22;10398;52.490;13.434;2024-02-23T05:43:58;10.00;99.90
20479;DHT22;10398;52.490;13.434;2024-02-23T05:46:24;9.80;99.90
20479;DHT22;10398;52.490;13.434;2024-02-23T05:48:50;9.80;99.90
20479;DHT22;10398;52.490;13.434;2024-02-23T05:51:15;9.80;99.90
20479;DHT22;10398;52.490;13.434;2024-02-23T05:53:41;9.80;99.90
20479;DHT22;10398;52.490;13.434;2024-02-23T05:56:07;9.70;99.90
20479;DHT22;10398;52.490;13.434;2024-02-23T05:58:33;9.70;99.90
20479;DHT22;10398;52.490;13.434;2024-02-23T06:00:58;9.60;99.90
20479;DHT22;10398;52.490;13.434;2024-02-23T06:03:24;9.60;99.90
20479;DHT22;10398;52.490;13.434;2024-02-23T06:05:50;9.60;99.90
20479;DHT22;10398;52.490;13.434;2024-02-23T06:08:16;9.60;99.90
20479;DHT22;10398;52.490;13.434;2024-02-23T06:10:41;9.60;99.90
20479;DHT22;10398;52.490;13.434;2024-02-23T06:13:08;9.60;99.90
20479;DHT22;10398;52.490;13.434;2024-02-23T06:15:34;9.60;99.90
20479;DHT22;10398;52.490;13.434;2024-02-23T06:17:59;9.60;99.90
20479;DHT22;10398;52.490;13.434;2024-02-23T06:20:25;9.70;99.90
20479;DHT22;10398;52.490;13.434;2024-02-23T06:22:51;9.70;99.90
20479;DHT22;10398;52.490;13.434;2024-02-23T06:25:17;9.60;99.90
20479;DHT22;10398;52.490;13.434;2024-02-23T06:27:42;9.60;99.90
20479;DHT22;10398;52.490;13.434;2024-02-23T06:30:08;9.50;99.90
20479;DHT22;10398;52.490;13.434;2024-02-23T06:32:34;9.60;99.90
20479;DHT22;10398;52.490;13.434;2024-02-23T06:35:03;9.60;99.90
20479;DHT22;10398;52.490;13.434;2024-02-23T06:37:28;9.60;99.90
20479;DHT22;10398;52.490;13.434;2024-02-23T06:39:54;9.60;99.90
20479;DHT22;10398;52.490;13.434;2024-02-23T06:42:23;9.60;99.90
20479;DHT22;10398;52.490;13.434;2024-02-23T06:44:49;9.60;99.90
20479;DHT22;10398;52.490;13.434;2024-02-23T06:47:15;9.60;99.90
20479;DHT22;10398;52.490;13.434;2024-02-23T06:49:44;9.60;99.90
20479;DHT22;10398;52.490;13.434;2024-02-23T06:52:10;9.50;99.90
20479;DHT22;10398;52.490;13.434;2024-02-23T06:54:36;9.50;99.90
20479;DHT22;10398;52.490;13.434;2024-02-23T06:57:02;9.60;99.90
20479;DHT22;10398;52.490;13.434;2024-02-23T06:59:28;9.60;99.90
20479;DHT22;10398;52.490;13.434;2024-02-23T07:01:54;9.70;99.90
20479;DHT22;10398;52.490;13.434;2024-02-23T07:04:21;9.60;99.90
20479;DHT22;10398;52.490;13.434;2024-02-23T07:06:46;9.60;99.90
20479;DHT22;10398;52.490;13.434;2024-02-23T07:09:12;9.70;99.90
20479;DHT22;10398;52.490;13.434;2024-02-23T07:11:38;9.50;99.90
20479;DHT22;10398;52.490;13.434;2024-02-23T07:14:04;9.50;99.90
20479;DHT22;10398;52.490;13.434;2024-02-23T07:16:30;9.50;99.90
20479;DHT22;10398;52.490;13.434;2024-02-23T07:18:56;9.40;99.90
20479;DHT22;10398;52.490;13.434;2024-02-23T07:21:22;9.40;99.90
20479;DHT22;10398;52.490;13.434;2024-02-23T07:23:48;9.50;99.90
20479;DHT22;10398;52.490;13.434;2024-02-23T07:26:14;9.60;99.90
20479;DHT22;10398;52.490;13.434;2024-02-23T07:28:39;9.70;99.90
20479;DHT22;10398;52.490;13.434;2024-02-23T07:31:05;9.70;99.90
20479;DHT22;10398;52.490;13.434;2024-02-23T07:33:30;9.70;99.90
20479;DHT22;10398;52.490;13.434;2024-02-23T07:35:56;9.70;99.90
20479;DHT22;10398;52.490;13.434;2024-02-23T07:38:22;9.80;99.90
20479;DHT22;10398;52.490;13.434;2024-02-23T07:40:48;9.80;99.90
20479;DHT22;10398;52.490;13.434;2024-02-23T07:43:13;9.80;99.90
20479;DHT22;10398;52.490;13.434;2024-02-23T07:45:39;9.80;99.90
20479;DHT22;10398;52.490;13.434;2024-02-23T07:48:05;9.80;99.90
20479;DHT22;10398;52.490;13.434;2024-02-23T07:50:30;9.90;99.90
20479;DHT22;10398;52.490;13.434;2024-02-23T07:52:56;9.90;99.90
20479;DHT22;10398;52.490;13.434;2024-02-23T07:55:22;10.00;99.90
20479;DHT22;10398;52.490;13.434;2024-02-23T07:57:47;10.00;99.90
20479;DHT22;10398;52.490;13.434;2024-02-23T08:00:13;10.00;99.90
20479;DHT22;10398;52.490;13.434;2024-02-23T08:02:39;9.90;99.90
20479;DHT22;10398;52.490;13.434;2024-02-23T08:05:06;9.80;99.90
20479;DHT22;10398;52.490;13.434;2024-02-23T08:07:32;9.80;99.90
20479;DHT22;10398;52.490;13.434;2024-02-23T08:09:58;9.90;99.90
20479;DHT22;10398;52.490;13.434;2024-02-23T08:12:23;10.00;99.90
20479;DHT22;10398;52.490;13.434;2024-02-23T08:14:49;10.10;99.90
20479;DHT22;10398;52.490;13.434;2024-02-23T08:17:18;10.20;99.90
20479;DHT22;10398;52.490;13.434;2024-02-23T08:19:44;10.20;99.90
20479;DHT22;10398;52.490;13.434;2024-02-23T08:22:09;10.30;99.90
20479;DHT22;10398;52.490;13.434;2024-02-23T08:24:35;10.50;99.90
20479;DHT22;10398;52.490;13.434;2024-02-23T08:27:01;10.60;99.90
20479;DHT22;10398;52.490;13.434;2024-02-23T08:29:28;10.50;99.90
20479;DHT22;10398;52.490;13.434;2024-02-23T08:31:53;10.50;99.90
20479;DHT22;10398;52.490;13.434;2024-02-23T08:34:19;10.40;99.90
20479;DHT22;10398;52.490;13.434;2024-02-23T08:36:45;10.20;99.90
20479;DHT22;10398;52.490;13.434;2024-02-23T08:39:10;10.10;99.90
20479;DHT22;10398;52.490;13.434;2024-02-23T08:41:36;10.00;99.90
20479;DHT22;10398;52.490;13.434;2024-02-23T08:44:02;10.00;99.90
20479;DHT22;10398;52.490;13.434;2024-02-23T08:46:28;10.00;99.90
20479;DHT22;10398;52.490;13.434;2024-02-23T08:48:53;10.00;99.90
20479;DHT22;10398;52.490;13.434;2024-02-23T08:51:19;10.00;99.90
20479;DHT22;10398;52.490;13.434;2024-02-23T08:53:45;10.00;99.90
20479;DHT22;10398;52.490;13.434;2024-02-23T08:56:11;10.10;99.90
20479;DHT22;10398;52.490;13.434;2024-02-23T08:58:37;10.10;99.90
20479;DHT22;10398;52.490;13.434;2024-02-23T09:01:03;10.10;99.90
20479;DHT22;10398;52.490;13.434;2024-02-23T09:03:30;10.00;99.90
20479;DHT22;10398;52.490;13.434;2024-02-23T09:05:57;10.00;99.90
20479;DHT22;10398;52.490;13.434;2024-02-23T09:08:22;10.20;99.90
20479;DHT22;10398;52.490;13.434;2024-02-23T09:10:48;10.50;99.90
20479;DHT22;10398;52.490;13.434;2024-02-23T09:13:14;10.60;99.90
20479;DHT22;10398;52.490;13.434;2024-02-23T09:15:40;10.70;99.90
20479;DHT22;10398;52.490;13.434;2024-02-23T09:18:07;10.70;99.90
20479;DHT22;10398;52.490;13.434;2024-02-23T09:20:33;10.80;99.90
20479;DHT22;10398;52.490;13.434;2024-02-23T09:22:59;10.70;99.90
20479;DHT22;10398;52.490;13.434;2024-02-23T09:25:24;10.80;99.90
20479;DHT22;10398;52.490;13.434;2024-02-23T09:27:50;11.00;99.90
20479;DHT22;10398;52.490;13.434;2024-02-23T09:30:16;11.10;99.90
20479;DHT22;10398;52.490;13.434;2024-02-23T09:32:41;11.30;99.90
20479;DHT22;10398;52.490;13.434;2024-02-23T09:35:08;11.50;99.90
20479;DHT22;10398;52.490;13.434;2024-02-23T09:37:33;11.70;99.90
20479;DHT22;10398;52.490;13.434;2024-02-23T09:39:59;11.70;99.90
20479;DHT22;10398;52.490;13.434;2024-02-23T09:42:28;11.50;99.90
20479;DHT22;10398;52.490;13.434;2024-02-23T09:44:59;11.50;99.90
20479;DHT22;10398;52.490;13.434;2024-02-23T09:47:27;11.50;99.90
20479;DHT22;10398;52.490;13.434;2024-02-23T09:49:54;11.50;99.90
20479;DHT22;10398;52.490;13.434;2024-02-23T09:52:20;11.50;99.90
20479;DHT22;10398;52.490;13.434;2024-02-23T09:54:47;11.50;99.90
20479;DHT22;10398;52.490;13.434;2024-02-23T09:57:14;11.50;99.90
20479;DHT22;10398;52.490;13.434;2024-02-23T09:59:40;11.60;99.90
20479;DHT22;10398;52.490;13.434;2024-02-23T10:02:08;11.70;99.90
20479;DHT22;10398;52.490;13.434;2024-02-23T10:04:42;11.70;99.90
20479;DHT22;10398;52.490;13.434;2024-02-23T10:07:14;11.80;99.90
20479;DHT22;10398;52.490;13.434;2024-02-23T10:09:41;11.80;99.90
20479;DHT22;10398;52.490;13.434;2024-02-23T10:12:07;11.90;99.90
20479;DHT22;10398;52.490;13.434;2024-02-23T10:14:33;12.10;99.90
20479;DHT22;10398;52.490;13.434;2024-02-23T10:16:59;12.40;99.90
20479;DHT22;10398;52.490;13.434;2024-02-23T10:19:27;12.40;99.90
20479;DHT22;10398;52.490;13.434;2024-02-23T10:21:55;12.10;99.90
20479;DHT22;10398;52.490;13.434;2024-02-23T10:24:22;12.10;99.90
20479;DHT22;10398;52.490;13.434;2024-02-23T10:26:48;12.00;99.90
20479;DHT22;10398;52.490;13.434;2024-02-23T10:29:14;11.80;99.90
20479;DHT22;10398;52.490;13.434;2024-02-23T10:31:39;11.80;99.90
20479;DHT22;10398;52.490;13.434;2024-02-23T10:34:09;12.00;99.90
20479;DHT22;10398;52.490;13.434;2024-02-23T10:36:41;12.10;99.90
20479;DHT22;10398;52.490;13.434;2024-02-23T10:39:11;12.30;99.90
20479;DHT22;10398;52.490;13.434;2024-02-23T10:41:46;12.40;99.90
20479;DHT22;10398;52.490;13.434;2024-02-23T10:44:12;12.60;99.90
20479;DHT22;10398;52.490;13.434;2024-02-23T10:46:38;12.70;99.90
20479;DHT22;10398;52.490;13.434;2024-02-23T10:49:06;12.90;99.90
20479;DHT22;10398;52.490;13.434;2024-02-23T10:51:33;12.90;99.90
20479;DHT22;10398;52.490;13.434;2024-02-23T10:54:00;12.90;99.90
20479;DHT22;10398;52.490;13.434;2024-02-23T10:56:26;12.90;99.90
20479;DHT22;10398;52.490;13.434;2024-02-23T10:58:52;12.90;99.90
20479;DHT22;10398;52.490;13.434;2024-02-23T11:01:19;12.90;99.90
20479;DHT22;10398;52.490;13.434;2024-02-23T11:03:45;13.00;99.90
20479;DHT22;10398;52.490;13.434;2024-02-23T11:06:16;13.10;99.90
20479;DHT22;10398;52.490;13.434;2024-02-23T11:08:46;13.30;99.90
20479;DHT22;10398;52.490;13.434;2024-02-23T11:11:16;13.40;99.90
20479;DHT22;10398;52.490;13.434;2024-02-23T11:13:44;13.50;99.90
20479;DHT22;10398;52.490;13.434;2024-02-23T11:16:10;13.60;99.90
20479;DHT22;10398;52.490;13.434;2024-02-23T11:18:36;13.60;99.30
20479;DHT22;10398;52.490;13.434;2024-02-23T11:21:03;13.60;99.50
20479;DHT22;10398;52.490;13.434;2024-02-23T11:23:42;13.60;99.30
20479;DHT22;10398;52.490;13.434;2024-02-23T11:26:12;13.40;98.00
20479;DHT22;10398;52.490;13.434;2024-02-23T11:28:51;13.20;98.10
20479;DHT22;10398;52.490;13.434;2024-02-23T11:31:29;13.10;97.60
20479;DHT22;10398;52.490;13.434;2024-02-23T11:33:56;13.10;97.90
20479;DHT22;10398;52.490;13.434;2024-02-23T11:36:42;13.10;97.90
20479;DHT22;10398;52.490;13.434;2024-02-23T11:39:10;13.00;98.00
20479;DHT22;10398;52.490;13.434;2024-02-23T11:41:38;12.90;97.80
20479;DHT22;10398;52.490;13.434;2024-02-23T11:44:04;12.80;97.70
20479;DHT22;10398;52.490;13.434;2024-02-23T11:46:32;12.70;97.90
20479;DHT22;10398;52.490;13.434;2024-02-23T11:48:58;12.70;98.50
20479;DHT22;10398;52.490;13.434;2024-02-23T11:51:26;12.60;98.10
20479;DHT22;10398;52.490;13.434;2024-02-23T11:53:55;12.50;98.30
20479;DHT22;10398;52.490;13.434;2024-02-23T11:56:23;12.50;98.60
20479;DHT22;10398;52.490;13.434;2024-02-23T11:58:49;12.40;98.10
20479;DHT22;10398;52.490;13.434;2024-02-23T12:01:15;12.40;98.10
20479;DHT22;10398;52.490;13.434;2024-02-23T12:03:41;12.40;98.40
20479;DHT22;10398;52.490;13.434;2024-02-23T12:06:10;12.40;98.60
20479;DHT22;10398;52.490;13.434;2024-02-23T12:08:35;12.50;99.80
20479;DHT22;10398;52.490;13.434;2024-02-23T12:11:05;12.40;98.70
20479;DHT22;10398;52.490;13.434;2024-02-23T12:13:34;12.50;99.80
20479;DHT22;10398;52.490;13.434;2024-02-23T12:15:59;12.50;97.90
20479;DHT22;10398;52.490;13.434;2024-02-23T12:18:26;12.30;97.80
20479;DHT22;10398;52.490;13.434;2024-02-23T12:20:52;12.40;99.00
20479;DHT22;10398;52.490;13.434;2024-02-23T12:23:18;12.50;99.30
20479;DHT22;10398;52.490;13.434;2024-02-23T12:25:59;12.40;98.70
20479;DHT22;10398;52.490;13.434;2024-02-23T12:28:26;12.50;99.20
20479;DHT22;10398;52.490;13.434;2024-02-23T12:31:02;12.50;99.00
20479;DHT22;10398;52.490;13.434;2024-02-23T12:33:28;12.60;98.20
20479;DHT22;10398;52.490;13.434;2024-02-23T12:35:58;12.50;98.90
20479;DHT22;10398;52.490;13.434;2024-02-23T12:38:24;12.40;98.60
20479;DHT22;10398;52.490;13.434;2024-02-23T12:40:50;12.20;98.40
20479;DHT22;10398;52.490;13.434;2024-02-23T12:43:17;12.30;99.40
20479;DHT22;10398;52.490;13.434;2024-02-23T12:45:42;12.00;99.10
20479;DHT22;10398;52.490;13.434;2024-02-23T12:48:17;12.00;99.20
20479;DHT22;10398;52.490;13.434;2024-02-23T12:50:44;12.10;99.70
20479;DHT22;10398;52.490;13.434;2024-02-23T12:53:38;12.20;98.80
20479;DHT22;10398;52.490;13.434;2024-02-23T12:56:11;12.20;99.10
20479;DHT22;10398;52.490;13.434;2024-02-23T12:58:40;12.20;98.50
20479;DHT22;10398;52.490;13.434;2024-02-23T13:01:06;12.10;98.80
20479;DHT22;10398;52.490;13.434;2024-02-23T13:03:33;12.10;98.90
20479;DHT22;10398;52.490;13.434;2024-02-23T13:05:59;12.10;99.90
20479;DHT22;10398;52.490;13.434;2024-02-23T13:08:26;12.20;99.20
20479;DHT22;10398;52.490;13.434;2024-02-23T13:10:52;12.10;98.30
20479;DHT22;10398;52.490;13.434;2024-02-23T13:13:19;11.70;98.70
20479;DHT22;10398;52.490;13.434;2024-02-23T13:15:48;11.50;99.90
20479;DHT22;10398;52.490;13.434;2024-02-23T13:18:14;11.60;99.90
20479;DHT22;10398;52.490;13.434;2024-02-23T13:20:40;11.80;99.90
20479;DHT22;10398;52.490;13.434;2024-02-23T13:23:10;11.70;99.90
20479;DHT22;10398;52.490;13.434;2024-02-23T13:25:37;11.70;99.90
20479;DHT22;10398;52.490;13.434;2024-02-23T13:28:03;11.70;99.90
20479;DHT22;10398;52.490;13.434;2024-02-23T13:30:33;11.60;99.90
20479;DHT22;10398;52.490;13.434;2024-02-23T13:32:59;11.60;99.90
20479;DHT22;10398;52.490;13.434;2024-02-23T13:35:25;11.20;99.90
20479;DHT22;10398;52.490;13.434;2024-02-23T13:37:51;11.00;99.90
20479;DHT22;10398;52.490;13.434;2024-02-23T13:40:17;11.00;99.90
20479;DHT22;10398;52.490;13.434;2024-02-23T13:42:43;11.10;99.90
20479;DHT22;10398;52.490;13.434;2024-02-23T13:45:11;11.10;99.90
20479;DHT22;10398;52.490;13.434;2024-02-23T13:47:39;11.10;99.90
20479;DHT22;10398;52.490;13.434;2024-02-23T13:50:05;11.20;99.90
20479;DHT22;10398;52.490;13.434;2024-02-23T13:52:31;11.20;99.90
20479;DHT22;10398;52.490;13.434;2024-02-23T13:54:57;11.20;99.90
20479;DHT22;10398;52.490;13.434;2024-02-23T13:57:23;11.10;99.90
20479;DHT22;10398;52.490;13.434;2024-02-23T13:59:48;11.10;99.90
20479;DHT22;10398;52.490;13.434;2024-02-23T14:02:14;11.20;99.90
20479;DHT22;10398;52.490;13.434;2024-02-23T14:04:40;11.30;99.90
20479;DHT22;10398;52.490;13.434;2024-02-23T14:07:07;11.30;99.90
20479;DHT22;10398;52.490;13.434;2024-02-23T14:09:33;11.20;99.90
20479;DHT22;10398;52.490;13.434;2024-02-23T14:11:59;11.00;99.90
20479;DHT22;10398;52.490;13.434;2024-02-23T14:14:24;10.90;99.90
20479;DHT22;10398;52.490;13.434;2024-02-23T14:16:50;11.00;99.90
20479;DHT22;10398;52.490;13.434;2024-02-23T14:19:16;11.00;99.90
20479;DHT22;10398;52.490;13.434;2024-02-23T14:21:42;11.10;99.90
20479;DHT22;10398;52.490;13.434;2024-02-23T14:24:07;11.00;99.90
20479;DHT22;10398;52.490;13.434;2024-02-23T14:26:33;11.10;99.90
20479;DHT22;10398;52.490;13.434;2024-02-23T14:28:59;11.00;99.90
20479;DHT22;10398;52.490;13.434;2024-02-23T14:31:25;11.00;99.90
20479;DHT22;10398;52.490;13.434;2024-02-23T14:33:51;11.00;99.90
20479;DHT22;10398;52.490;13.434;2024-02-23T14:36:17;10.80;99.90
20479;DHT22;10398;52.490;13.434;2024-02-23T14:38:43;10.70;99.90
20479;DHT22;10398;52.490;13.434;2024-02-23T14:41:09;10.70;99.90
20479;DHT22;10398;52.490;13.434;2024-02-23T14:43:36;10.80;99.90
20479;DHT22;10398;52.490;13.434;2024-02-23T14:46:02;10.90;99.90
20479;DHT22;10398;52.490;13.434;2024-02-23T14:48:28;10.90;99.90
20479;DHT22;10398;52.490;13.434;2024-02-23T14:50:53;11.00;99.90
20479;DHT22;10398;52.490;13.434;2024-02-23T14:53:19;11.00;99.90
20479;DHT22;10398;52.490;13.434;2024-02-23T14:55:45;10.80;99.90
20479;DHT22;10398;52.490;13.434;2024-02-23T14:58:12;10.80;99.90
20479;DHT22;10398;52.490;13.434;2024-02-23T15:00:37;10.70;99.90
20479;DHT22;10398;52.490;13.434;2024-02-23T15:03:03;10.70;99.90
20479;DHT22;10398;52.490;13.434;2024-02-23T15:05:29;10.70;99.90
20479;DHT22;10398;52.490;13.434;2024-02-23T15:07:55;10.60;99.90
20479;DHT22;10398;52.490;13.434;2024-02-23T15:10:21;10.60;99.90
20479;DHT22;10398;52.490;13.434;2024-02-23T15:12:47;10.60;99.90
20479;DHT22;10398;52.490;13.434;2024-02-23T15:15:12;10.60;99.90